Time;durP1;ratioP1;P1;durP2;ratioP2;P2;SDS_P1;SDS_P2;PMS_P1;PMS_P2;Temp;Humidity;BMP_temperature;BMP_pressure;BME280_temperature;BME280_humidity;BME280_pressure;Samples;Min_cycle;Max_cycle;Signal;HPM_P1;HPM_P2
2023/09/18 00:00:26;;;;;;;107.40;60.05;;;16.90;99.90;;;;;;5072313;28;20044;-90
2023/09/18 00:02:52;;;;;;;103.88;61.20;;;;;;;;;;5082272;28;20550;-90
2023/09/18 00:05:18;;;;;;;104.18;60.75;;;;;;;;;;5061884;28;20761;-91
2023/09/18 00:07:44;;;;;;;93.65;61.08;;;16.80;99.90;;;;;;5103152;28;20052;-90
2023/09/18 00:10:11;;;;;;;105.72;64.30;;;16.70;99.90;;;;;;5060850;28;20071;-89
2023/09/18 00:12:38;;;;;;;115.68;60.38;;;16.50;99.90;;;;;;5055696;28;20124;-89
2023/09/18 00:15:05;;;;;;;94.57;57.50;;;16.70;99.90;;;;;;5057181;28;20040;-90
2023/09/18 00:17:31;;;;;;;76.80;53.78;;;16.60;99.90;;;;;;5058110;28;20036;-90
2023/09/18 00:19:57;;;;;;;96.10;57.03;;;16.60;99.90;;;;;;5050602;28;20055;-90
2023/09/18 00:22:24;;;;;;;81.65;53.00;;;16.60;99.90;;;;;;5049341;28;20054;-90
2023/09/18 00:24:50;;;;;;;78.22;49.42;;;16.60;99.90;;;;;;5055623;28;20043;-91
2023/09/18 00:27:16;;;;;;;77.65;48.50;;;;;;;;;;5062858;28;20063;-90
2023/09/18 00:29:42;;;;;;;73.65;45.53;;;;;;;;;;5065849;28;20517;-90
2023/09/18 00:32:08;;;;;;;74.35;47.65;;;;;;;;;;5068970;28;20038;-89
2023/09/18 00:34:34;;;;;;;67.78;44.58;;;16.40;99.90;;;;;;5073856;28;20113;-87
2023/09/18 00:37:00;;;;;;;87.18;47.50;;;16.20;99.90;;;;;;5077596;28;20130;-89
2023/09/18 00:39:26;;;;;;;117.80;59.38;;;16.20;99.90;;;;;;5094064;28;20113;-88
2023/09/18 00:41:54;;;;;;;98.82;57.05;;;16.10;99.90;;;;;;5063805;28;20143;-90
2023/09/18 00:44:24;;;;;;;93.22;53.55;;;15.90;99.90;;;;;;5075869;28;20051;-89
2023/09/18 00:46:51;;;;;;;101.40;60.53;;;15.70;99.90;;;;;;5049340;28;20032;-90
2023/09/18 00:49:18;;;;;;;96.03;59.03;;;16.00;99.90;;;;;;5097629;28;20252;-87
2023/09/18 00:51:44;;;;;;;97.00;59.97;;;16.00;99.90;;;;;;5055424;28;20036;-90
2023/09/18 00:54:11;;;;;;;99.85;59.88;;;16.00;99.90;;;;;;5065498;28;20040;-89
2023/09/18 00:56:37;;;;;;;110.15;61.83;;;16.00;99.90;;;;;;5059368;28;20040;-89
2023/09/18 00:59:03;;;;;;;98.07;59.53;;;;;;;;;;5079848;28;20051;-91
2023/09/18 01:01:29;;;;;;;101.60;63.13;;;16.00;99.90;;;;;;5076912;28;20073;-89
2023/09/18 01:03:57;;;;;;;88.93;59.10;;;16.00;99.90;;;;;;5066438;28;20289;-87
2023/09/18 01:06:27;;;;;;;77.22;54.85;;;16.10;99.90;;;;;;5061601;28;20043;-90
2023/09/18 01:08:54;;;;;;;91.05;57.05;;;;;;;;;;5063767;28;20044;-91
2023/09/18 01:11:59;;;;;;;87.10;57.70;;;16.10;99.90;;;;;;5054992;28;20165;-88
2023/09/18 01:14:42;;;;;;;90.38;56.88;;;16.10;99.90;;;;;;5013009;28;20052;-89
2023/09/18 01:17:10;;;;;;;73.05;52.75;;;16.10;99.90;;;;;;5057163;28;20044;-89
2023/09/18 01:19:38;;;;;;;63.97;51.03;;;16.10;99.90;;;;;;5059311;28;20044;-90
2023/09/18 01:22:09;;;;;;;77.20;56.03;;;16.00;99.90;;;;;;5061772;28;20051;-88
2023/09/18 01:24:36;;;;;;;66.55;51.72;;;16.10;99.90;;;;;;5059231;28;20537;-90
2023/09/18 01:27:06;;;;;;;71.65;53.63;;;16.00;99.90;;;;;;5057548;28;20410;-91
2023/09/18 01:29:32;;;;;;;59.70;48.30;;;16.00;99.90;;;;;;5071341;28;20052;-89
2023/09/18 01:31:58;;;;;;;68.85;50.42;;;16.00;99.90;;;;;;5088425;28;20142;-88
2023/09/18 01:34:36;;;;;;;59.22;46.33;;;15.70;99.90;;;;;;5068483;28;20416;-89
2023/09/18 01:37:05;;;;;;;53.70;47.63;;;16.10;99.90;;;;;;5062232;28;20235;-89
2023/09/18 01:39:32;;;;;;;60.90;48.25;;;16.20;99.90;;;;;;5058125;28;20040;-89
2023/09/18 01:42:06;;;;;;;59.47;49.92;;;16.20;99.90;;;;;;5049538;28;20870;-90
2023/09/18 01:44:33;;;;;;;53.20;47.22;;;16.20;99.90;;;;;;5074555;28;20035;-87
2023/09/18 01:47:02;;;;;;;67.45;51.40;;;16.30;99.90;;;;;;5064340;28;20104;-88
2023/09/18 01:49:34;;;;;;;57.05;48.42;;;16.20;99.90;;;;;;5071550;28;20044;-89
2023/09/18 01:52:00;;;;;;;66.78;51.17;;;16.30;99.90;;;;;;5049899;28;20024;-90
2023/09/18 01:54:26;;;;;;;53.65;45.92;;;;;;;;;;5076482;28;20036;-89
2023/09/18 01:56:53;;;;;;;60.88;48.58;;;16.20;99.90;;;;;;5092583;28;20523;-89
2023/09/18 01:59:19;;;;;;;53.05;44.97;;;16.20;99.90;;;;;;5065168;28;20078;-91
2023/09/18 02:01:46;;;;;;;57.38;46.58;;;;;;;;;;5063323;28;20103;-89
2023/09/18 02:04:12;;;;;;;48.60;43.05;;;;;;;;;;5078635;28;20162;-88
2023/09/18 02:06:37;;;;;;;53.80;45.50;;;16.30;99.90;;;;;;5055344;28;20126;-90
2023/09/18 02:09:05;;;;;;;54.60;44.47;;;;;;;;;;5058111;28;20028;-90
2023/09/18 02:11:30;;;;;;;49.63;42.30;;;16.30;99.90;;;;;;5053096;28;20417;-87
2023/09/18 02:13:56;;;;;;;49.95;42.40;;;16.40;99.90;;;;;;5055853;28;20028;-90
2023/09/18 02:16:24;;;;;;;45.75;40.90;;;16.50;99.90;;;;;;5050596;28;20052;-90
2023/09/18 02:18:50;;;;;;;48.80;43.28;;;;;;;;;;5077450;28;20091;-86
2023/09/18 02:21:20;;;;;;;48.60;43.35;;;16.50;99.90;;;;;;5049407;28;20098;-89
2023/09/18 02:23:46;;;;;;;56.00;43.95;;;;;;;;;;5055684;28;20029;-88
2023/09/18 02:26:12;;;;;;;52.22;42.63;;;;;;;;;;5057139;28;20056;-89
2023/09/18 02:28:38;;;;;;;49.65;44.35;;;;;;;;;;5060122;28;20109;-89
2023/09/18 02:31:04;;;;;;;49.45;43.45;;;16.50;99.90;;;;;;5062323;28;20042;-90
2023/09/18 02:33:30;;;;;;;51.72;43.42;;;16.40;99.90;;;;;;5050829;28;20052;-90
2023/09/18 02:35:55;;;;;;;45.42;40.20;;;17.30;99.90;;;;;;5060686;28;20106;-90
2023/09/18 02:38:21;;;;;;;45.00;37.45;;;16.40;99.90;;;;;;5047687;28;20498;-89
2023/09/18 02:40:47;;;;;;;16.67;11.07;;;17.00;99.90;;;;;;5046018;28;20048;-90
2023/09/18 02:43:13;;;;;;;22.23;12.52;;;16.50;99.90;;;;;;5049553;28;20052;-89
2023/09/18 02:45:40;;;;;;;19.33;11.43;;;16.40;99.90;;;;;;5050255;28;20135;-89
2023/09/18 02:48:06;;;;;;;19.48;13.07;;;16.50;99.90;;;;;;5072539;28;20039;-89
2023/09/18 02:50:31;;;;;;;1070.65;166.43;;;16.50;99.90;;;;;;5057838;28;20040;-90
2023/09/18 02:52:57;;;;;;;45.42;38.25;;;16.50;99.90;;;;;;5076786;28;20093;-90
2023/09/18 02:55:23;;;;;;;38.17;32.83;;;16.40;99.90;;;;;;5061509;28;20063;-89
2023/09/18 02:57:49;;;;;;;44.83;38.72;;;16.40;99.90;;;;;;5057598;28;20048;-89
2023/09/18 03:00:14;;;;;;;39.03;34.67;;;16.60;99.90;;;;;;5075267;28;20126;-91
2023/09/18 03:02:41;;;;;;;43.97;34.97;;;16.40;99.90;;;;;;5076313;28;20044;-88
2023/09/18 03:05:08;;;;;;;45.22;37.30;;;16.40;99.90;;;;;;5046722;28;20044;-89
2023/09/18 03:07:34;;;;;;;40.42;34.78;;;16.60;99.90;;;;;;5071147;28;20189;-89
2023/09/18 03:10:00;;;;;;;40.35;35.05;;;16.40;99.90;;;;;;5056072;28;20814;-87
2023/09/18 03:12:26;;;;;;;38.80;34.53;;;16.40;99.90;;;;;;5058385;28;20042;-89
2023/09/18 03:14:51;;;;;;;34.70;31.00;;;16.40;99.90;;;;;;5078760;28;20032;-88
2023/09/18 03:17:17;;;;;;;38.17;31.80;;;;;;;;;;5066460;28;20130;-89
2023/09/18 03:19:43;;;;;;;33.38;29.70;;;;;;;;;;5062831;28;20046;-88
2023/09/18 03:22:09;;;;;;;41.30;34.25;;;16.40;99.90;;;;;;5061569;28;20119;-90
2023/09/18 03:24:35;;;;;;;39.42;35.15;;;16.40;99.90;;;;;;5065279;28;20543;-89
2023/09/18 03:27:00;;;;;;;38.50;33.53;;;16.50;99.90;;;;;;5060153;28;20051;-89
2023/09/18 03:29:26;;;;;;;38.03;31.08;;;;;;;;;;5065244;28;20050;-89
2023/09/18 03:31:52;;;;;;;39.28;32.55;;;16.40;99.90;;;;;;5071317;28;20122;-89
2023/09/18 03:34:18;;;;;;;38.13;32.45;;;16.40;99.90;;;;;;5058435;28;20333;-90
2023/09/18 03:36:43;;;;;;;36.90;32.30;;;16.40;99.90;;;;;;5064449;28;20074;-88
2023/09/18 03:39:09;;;;;;;36.67;31.67;;;16.60;99.90;;;;;;5055937;28;20044;-88
2023/09/18 03:41:35;;;;;;;35.72;31.92;;;;;;;;;;5057961;28;20035;-89
2023/09/18 03:44:02;;;;;;;41.30;33.63;;;16.40;99.90;;;;;;5077194;28;20040;-88
2023/09/18 03:46:28;;;;;;;36.30;30.88;;;16.40;99.90;;;;;;5076152;28;20043;-89
2023/09/18 03:48:55;;;;;;;36.20;31.02;;;;;;;;;;5062623;28;20036;-89
2023/09/18 03:51:21;;;;;;;39.65;29.73;;;;;;;;;;5074859;28;20047;-89
2023/09/18 03:53:48;;;;;;;38.53;31.98;;;;;;;;;;5064506;28;20117;-90
2023/09/18 03:56:14;;;;;;;38.35;30.88;;;;;;;;;;5068274;28;20062;-90
2023/09/18 03:58:40;;;;;;;38.00;30.55;;;;;;;;;;5056282;28;20409;-90
2023/09/18 04:01:06;;;;;;;39.38;32.05;;;;;;;;;;5062483;28;20100;-90
2023/09/18 04:03:32;;;;;;;37.88;29.15;;;;;;;;;;5065034;28;20047;-89
2023/09/18 04:05:58;;;;;;;34.20;29.33;;;;;;;;;;5077057;28;20071;-90
2023/09/18 04:08:24;;;;;;;33.80;28.67;;;;;;;;;;5058989;28;20070;-90
2023/09/18 04:10:50;;;;;;;34.13;29.73;;;;;;;;;;5070501;28;20039;-89
2023/09/18 04:13:16;;;;;;;36.05;31.40;;;;;;;;;;5066924;28;20071;-90
2023/09/18 04:15:43;;;;;;;33.17;27.40;;;16.50;99.90;;;;;;5063554;28;20864;-91
2023/09/18 04:18:08;;;;;;;35.72;29.38;;;16.50;99.90;;;;;;5067073;28;20100;-89
2023/09/18 04:20:35;;;;;;;39.03;31.02;;;16.50;99.90;;;;;;5062589;28;20040;-90
2023/09/18 04:23:19;;;;;;;34.63;29.85;;;16.40;99.90;;;;;;5075378;28;20447;-91
2023/09/18 04:25:45;;;;;;;34.80;30.00;;;;;;;;;;5059850;28;20055;-90
2023/09/18 04:28:13;;;;;;;38.40;30.80;;;16.50;99.90;;;;;;5068135;28;20043;-90
2023/09/18 04:30:39;;;;;;;33.60;29.90;;;;;;;;;;5058166;28;20139;-90
2023/09/18 04:33:05;;;;;;;31.90;27.65;;;;;;;;;;5059429;28;20045;-91
2023/09/18 04:35:31;;;;;;;36.35;28.35;;;16.50;99.90;;;;;;5061487;28;20032;-90
2023/09/18 04:37:58;;;;;;;34.40;28.45;;;16.50;99.90;;;;;;5056944;28;20090;-89
2023/09/18 04:40:26;;;;;;;36.83;27.75;;;;;;;;;;5047469;28;20041;-90
2023/09/18 04:42:52;;;;;;;36.15;27.65;;;;;;;;;;5043634;28;20040;-91
2023/09/18 04:45:19;;;;;;;34.15;26.98;;;;;;;;;;5071820;28;20051;-92
2023/09/18 04:47:45;;;;;;;33.90;28.38;;;;;;;;;;5065167;28;20037;-90
2023/09/18 04:50:11;;;;;;;38.47;28.45;;;;;;;;;;5071221;28;20039;-90
2023/09/18 04:52:37;;;;;;;33.90;28.08;;;16.70;99.90;;;;;;5051709;28;20052;-91
2023/09/18 04:55:05;;;;;;;34.85;26.45;;;17.20;99.90;;;;;;5053483;28;20043;-90
2023/09/18 04:57:31;;;;;;;32.47;25.83;;;;;;;;;;5053696;28;20046;-91
2023/09/18 04:59:57;;;;;;;33.42;26.88;;;16.80;99.90;;;;;;5069746;28;20106;-90
2023/09/18 05:02:25;;;;;;;36.20;28.58;;;16.80;99.90;;;;;;5069839;28;20126;-91
2023/09/18 05:04:51;;;;;;;35.70;26.02;;;16.80;99.90;;;;;;5065805;28;20030;-91
2023/09/18 05:07:17;;;;;;;30.73;23.50;;;16.80;99.90;;;;;;5059985;28;20358;-91
2023/09/18 05:09:43;;;;;;;34.38;24.88;;;;;;;;;;5076549;28;20050;-90
2023/09/18 05:12:13;;;;;;;32.03;24.17;;;16.90;99.90;;;;;;5053770;28;20119;-91
2023/09/18 05:14:43;;;;;;;32.38;25.58;;;16.90;99.90;;;;;;5065469;28;20039;-91
2023/09/18 05:17:16;;;;;;;32.30;24.08;;;16.90;99.90;;;;;;5069321;28;20048;-91
2023/09/18 05:19:43;;;;;;;29.13;23.55;;;16.90;99.90;;;;;;5052927;28;20041;-91
2023/09/18 05:22:12;;;;;;;28.50;21.23;;;;;;;;;;5049960;28;20055;-90
2023/09/18 05:24:39;;;;;;;21.77;19.55;;;17.00;99.90;;;;;;5068669;28;20051;-90
2023/09/18 05:27:08;;;;;;;23.00;18.88;;;;;;;;;;5091391;28;20632;-89
2023/09/18 05:29:36;;;;;;;23.08;18.45;;;17.10;99.90;;;;;;5064089;28;20485;-90
2023/09/18 05:32:02;;;;;;;23.08;18.23;;;;;;;;;;5064707;28;20570;-88
2023/09/18 05:34:28;;;;;;;21.38;18.92;;;;;;;;;;5073793;28;20047;-90
2023/09/18 05:36:54;;;;;;;25.63;18.05;;;17.20;99.90;;;;;;5070110;28;20040;-88
2023/09/18 05:39:19;;;;;;;18.35;15.35;;;17.20;99.90;;;;;;5057313;28;20044;-87
2023/09/18 05:41:45;;;;;;;20.35;15.95;;;17.20;99.90;;;;;;5057385;28;20405;-90
2023/09/18 05:44:14;;;;;;;22.73;14.98;;;17.30;99.90;;;;;;5059605;28;20774;-89
2023/09/18 05:46:40;;;;;;;19.40;14.05;;;;;;;;;;5053590;28;20083;-90
2023/09/18 05:49:07;;;;;;;16.67;13.68;;;;;;;;;;5078603;28;20043;-90
2023/09/18 05:51:34;;;;;;;18.50;13.02;;;;;;;;;;5055215;28;20108;-90
2023/09/18 05:54:00;;;;;;;20.55;14.25;;;;;;;;;;5073357;28;20085;-89
2023/09/18 05:56:25;;;;;;;20.50;13.98;;;17.50;99.90;;;;;;5048606;28;20038;-88
2023/09/18 05:58:52;;;;;;;17.92;13.60;;;17.50;99.90;;;;;;5052433;28;20093;-91
2023/09/18 06:01:18;;;;;;;17.17;13.52;;;17.40;99.90;;;;;;5063041;28;20484;-90
2023/09/18 06:03:44;;;;;;;17.80;13.35;;;17.60;99.90;;;;;;5063087;28;20500;-89
2023/09/18 06:06:09;;;;;;;17.67;13.95;;;17.70;99.90;;;;;;5082802;28;20102;-90
2023/09/18 06:08:35;;;;;;;19.92;12.90;;;17.70;99.90;;;;;;5060071;28;20048;-91
2023/09/18 06:11:01;;;;;;;14.70;13.07;;;;;;;;;;5063106;28;20118;-91
2023/09/18 06:13:27;;;;;;;14.75;12.52;;;17.80;99.90;;;;;;5053999;28;20037;-88
2023/09/18 06:15:55;;;;;;;18.00;12.70;;;17.80;99.90;;;;;;5059926;28;20535;-89
2023/09/18 06:18:21;;;;;;;18.75;11.85;;;;;;;;;;5054096;28;20048;-89
2023/09/18 06:20:59;;;;;;;14.48;12.25;;;17.90;99.90;;;;;;5059047;28;20043;-90
2023/09/18 06:23:25;;;;;;;17.30;12.07;;;19.20;99.90;;;;;;5057952;28;20536;-89
2023/09/18 06:25:56;;;;;;;14.07;10.48;;;;;;;;;;5051884;28;20060;-89
2023/09/18 06:28:24;;;;;;;15.85;10.68;;;;;;;;;;5063117;28;20048;-90
2023/09/18 06:30:51;;;;;;;12.00;10.20;;;18.00;99.90;;;;;;5049536;28;20036;-89
2023/09/18 06:33:17;;;;;;;13.10;10.20;;;;;;;;;;5067398;28;20036;-91
2023/09/18 06:35:42;;;;;;;13.27;10.57;;;17.60;99.90;;;;;;5054674;28;20121;-91
2023/09/18 06:38:11;;;;;;;13.32;10.15;;;18.00;99.90;;;;;;5072676;28;20098;-90
2023/09/18 06:40:37;;;;;;;13.95;10.73;;;18.00;99.90;;;;;;5056178;28;20040;-90
2023/09/18 06:43:03;;;;;;;14.68;10.82;;;18.00;99.90;;;;;;5054378;28;20048;-90
2023/09/18 06:45:29;;;;;;;16.23;11.63;;;18.00;99.90;;;;;;5058727;28;20066;-86
2023/09/18 06:47:55;;;;;;;14.85;11.18;;;18.00;99.90;;;;;;5086553;28;20048;-89
2023/09/18 06:50:21;;;;;;;18.65;11.27;;;;;;;;;;5069088;28;20036;-92
2023/09/18 06:52:47;;;;;;;27.77;14.18;;;17.90;99.90;;;;;;5050693;28;20052;-87
2023/09/18 06:55:12;;;;;;;26.88;14.80;;;18.10;99.90;;;;;;5075232;28;20091;-84
2023/09/18 06:57:38;;;;;;;24.10;16.60;;;17.90;99.90;;;;;;5053184;28;20159;-87
2023/09/18 07:00:05;;;;;;;21.48;15.27;;;17.80;99.90;;;;;;5071604;28;20127;-86
2023/09/18 07:02:31;;;;;;;21.98;15.13;;;17.70;99.90;;;;;;5060361;28;20044;-85
2023/09/18 07:04:57;;;;;;;27.73;16.85;;;;;;;;;;5071418;28;20040;-90
2023/09/18 07:07:25;;;;;;;27.52;16.80;;;;;;;;;;5069573;28;20070;-86
2023/09/18 07:09:51;;;;;;;33.72;20.08;;;17.50;99.90;;;;;;5064049;28;20044;-86
2023/09/18 07:12:20;;;;;;;29.38;17.38;;;;;;;;;;5048492;28;20123;-87
2023/09/18 07:14:47;;;;;;;27.65;18.27;;;;;;;;;;5075166;28;20028;-86
2023/09/18 07:17:13;;;;;;;30.58;18.50;;;;;;;;;;5061762;28;20039;-88
2023/09/18 07:19:39;;;;;;;29.42;18.25;;;17.60;99.90;;;;;;5064876;28;20039;-89
2023/09/18 07:22:05;;;;;;;29.35;20.33;;;;;;;;;;5062896;28;20047;-91
2023/09/18 07:24:31;;;;;;;37.17;24.83;;;;;;;;;;5091079;28;20032;-95
2023/09/18 07:26:58;;;;;;;43.20;28.33;;;;;;;;;;5061062;28;20060;-96
2023/09/18 07:29:25;;;;;;;39.15;27.15;;;17.70;99.90;;;;;;5082754;28;20089;-96
2023/09/18 07:31:51;;;;;;;60.05;34.83;;;;;;;;;;5060739;28;20493;-93
2023/09/18 07:34:17;;;;;;;41.47;28.10;;;;;;;;;;5059626;28;20044;-90
2023/09/18 07:36:47;;;;;;;35.10;24.65;;;17.80;99.90;;;;;;5052008;28;20052;-89
2023/09/18 07:39:17;;;;;;;35.92;20.92;;;17.80;99.90;;;;;;5066021;28;20421;-91
2023/09/18 07:41:43;;;;;;;36.47;18.90;;;;;;;;;;5050996;28;20048;-91
2023/09/18 07:44:31;;;;;;;26.10;17.73;;;17.80;99.90;;;;;;5079913;28;20047;-90
2023/09/18 07:46:57;;;;;;;48.40;21.85;;;;;;;;;;5054175;28;20052;-90
2023/09/18 07:49:23;;;;;;;43.78;24.55;;;;;;;;;;5059239;28;20101;-91
2023/09/18 07:51:49;;;;;;;33.53;20.02;;;17.90;99.90;;;;;;5050136;28;20075;-89
2023/09/18 07:54:16;;;;;;;31.65;21.77;;;18.00;99.90;;;;;;5049788;28;20075;-87
2023/09/18 07:56:43;;;;;;;32.08;21.48;;;18.10;99.90;;;;;;5068996;28;20046;-89
2023/09/18 07:59:10;;;;;;;26.48;19.20;;;18.40;99.90;;;;;;5057174;28;20108;-91
2023/09/18 08:01:36;;;;;;;32.90;21.00;;;;;;;;;;5051557;28;20532;-89
2023/09/18 08:04:02;;;;;;;30.30;21.38;;;;;;;;;;5055622;28;20063;-90
2023/09/18 08:06:28;;;;;;;30.70;21.50;;;18.50;99.90;;;;;;5068858;28;20077;-91
2023/09/18 08:08:55;;;;;;;33.17;21.40;;;18.70;99.90;;;;;;5068863;28;20040;-89
2023/09/18 08:11:21;;;;;;;29.50;21.00;;;;;;;;;;5049825;28;20730;-88
2023/09/18 08:13:47;;;;;;;36.75;21.70;;;;;;;;;;5082244;28;20032;-92
2023/09/18 08:16:13;;;;;;;33.22;22.17;;;;;;;;;;5073245;28;20563;-91
2023/09/18 08:18:41;;;;;;;29.02;21.77;;;;;;;;;;5069038;28;20150;-93
2023/09/18 08:21:10;;;;;;;27.33;20.40;;;;;;;;;;5070905;28;20469;-92
2023/09/18 08:23:36;;;;;;;24.85;19.90;;;;;;;;;;5065739;28;20436;-93
2023/09/18 08:26:03;;;;;;;29.20;20.67;;;;;;;;;;5043245;28;20086;-93
2023/09/18 08:28:30;;;;;;;21.33;18.50;;;19.10;99.90;;;;;;5059440;28;20050;-92
2023/09/18 08:30:58;;;;;;;26.70;20.70;;;;;;;;;;5047602;28;20040;-91
2023/09/18 08:33:24;;;;;;;24.02;18.65;;;;;;;;;;5060074;28;20511;-86
2023/09/18 08:35:50;;;;;;;23.50;17.30;;;;;;;;;;5084086;28;20030;-89
2023/09/18 08:38:16;;;;;;;22.17;16.20;;;;;;;;;;5063101;28;20043;-88
2023/09/18 08:40:42;;;;;;;24.00;17.45;;;;;;;;;;5068617;28;20056;-91
2023/09/18 08:43:11;;;;;;;20.92;18.13;;;18.80;99.90;;;;;;5066327;28;20929;-93
2023/09/18 08:45:50;;;;;;;22.98;18.23;;;19.50;99.90;;;;;;5055239;28;20044;-88
2023/09/18 08:48:17;;;;;;;24.27;17.58;;;18.80;99.90;;;;;;5054652;28;20043;-87
2023/09/18 08:50:46;;;;;;;22.30;17.50;;;;;;;;;;5069157;28;20560;-91
2023/09/18 08:53:13;;;;;;;28.52;19.75;;;;;;;;;;5062762;28;20980;-87
2023/09/18 08:55:39;;;;;;;25.92;19.70;;;;;;;;;;5074583;28;20736;-87
2023/09/18 08:58:07;;;;;;;29.88;19.95;;;18.80;99.90;;;;;;5057179;28;20098;-87
2023/09/18 09:03:26;;;;;;;;;;;18.80;99.90;;;;;;5070142;28;20036;-90
2023/09/18 09:05:52;;;;;;;21.88;18.77;;;;;;;;;;5061443;28;19923;-88
2023/09/18 09:09:19;;;;;;;25.38;19.20;;;18.50;99.90;;;;;;5063575;28;20127;-87
2023/09/18 09:11:51;;;;;;;29.55;21.65;;;18.90;99.90;;;;;;5080206;28;20044;-89
2023/09/18 09:14:32;;;;;;;29.55;21.73;;;18.80;99.90;;;;;;5019896;28;20059;-90
2023/09/18 09:16:58;;;;;;;32.97;23.05;;;;;;;;;;5038968;28;20127;-92
2023/09/18 09:19:42;;;;;;;30.98;21.50;;;18.90;99.90;;;;;;5039289;28;20114;-93
2023/09/18 09:22:22;;;;;;;32.47;24.13;;;19.10;99.90;;;;;;5074831;28;20225;-92
2023/09/18 09:24:51;;;;;;;33.90;23.10;;;19.00;99.90;;;;;;5048287;28;20713;-91
2023/09/18 09:27:18;;;;;;;26.20;22.23;;;;;;;;;;5055726;28;20047;-92
2023/09/18 09:29:59;;;;;;;27.67;22.40;;;19.10;99.90;;;;;;5052581;28;20055;-89
2023/09/18 09:32:31;;;;;;;28.33;21.85;;;19.10;99.90;;;;;;5066021;28;20036;-94
2023/09/18 09:35:06;;;;;;;32.83;22.65;;;19.50;99.90;;;;;;5066719;28;20035;-93
2023/09/18 09:37:33;;;;;;;25.83;22.10;;;;;;;;;;5047254;28;20037;-90
2023/09/18 09:40:08;;;;;;;32.38;23.40;;;19.30;99.90;;;;;;5050331;28;20044;-96
2023/09/18 09:42:39;;;;;;;25.75;20.95;;;19.30;99.90;;;;;;5061761;28;20104;-90
2023/09/18 09:45:12;;;;;;;30.13;21.13;;;19.20;99.90;;;;;;5067684;28;20040;-90
2023/09/18 09:47:38;;;;;;;29.85;22.17;;;19.40;99.90;;;;;;5058635;28;20325;-89
2023/09/18 09:50:13;;;;;;;23.92;20.00;;;19.60;99.90;;;;;;5061075;28;20400;-85
2023/09/18 09:52:48;;;;;;;28.90;21.95;;;19.50;99.90;;;;;;5043260;28;20043;-94
2023/09/18 09:55:30;;;;;;;27.83;21.98;;;20.10;99.90;;;;;;5058500;28;20051;-91
2023/09/18 09:57:59;;;;;;;24.70;19.65;;;20.20;99.90;;;;;;5048982;28;20047;-95
2023/09/18 10:00:40;;;;;;;26.58;19.67;;;20.70;99.90;;;;;;5047530;28;20040;-86
2023/09/18 10:03:08;;;;;;;21.73;19.45;;;20.60;99.90;;;;;;5049295;28;20032;-89
2023/09/18 10:05:39;;;;;;;27.30;19.75;;;20.80;99.90;;;;;;5047472;28;20071;-90
2023/09/18 10:08:12;;;;;;;20.05;17.27;;;21.20;99.90;;;;;;5041930;28;20043;-91
2023/09/18 10:10:45;;;;;;;17.75;15.68;;;21.00;99.90;;;;;;5074600;28;20035;-93
2023/09/18 10:13:16;;;;;;;20.77;15.25;;;21.00;99.90;;;;;;5027880;28;20088;-89
2023/09/18 10:15:43;;;;;;;18.48;15.18;;;;;;;;;;5036659;28;20071;-91
2023/09/18 10:18:31;;;;;;;21.08;16.52;;;21.00;99.90;;;;;;5023311;28;20103;-92
2023/09/18 10:21:11;;;;;;;17.20;14.25;;;21.20;99.90;;;;;;5006411;28;20045;-87
2023/09/18 10:23:47;;;;;;;16.33;14.68;;;21.40;99.90;;;;;;5024270;28;20146;-87
2023/09/18 10:26:19;;;;;;;17.67;14.07;;;21.50;99.90;;;;;;5048627;28;20087;-91
2023/09/18 10:28:46;;;;;;;18.15;13.38;;;;;;;;;;5033619;28;20054;-93
2023/09/18 10:31:13;;;;;;;23.08;14.25;;;21.60;99.90;;;;;;5048260;28;20817;-92
2023/09/18 10:33:39;;;;;;;13.68;11.98;;;21.70;99.90;;;;;;5045519;28;20540;-87
2023/09/18 10:36:07;;;;;;;13.90;12.40;;;21.70;99.90;;;;;;5050851;28;20036;-89
2023/09/18 10:38:34;;;;;;;15.55;12.48;;;21.80;99.90;;;;;;5040765;28;20036;-90
2023/09/18 10:41:00;;;;;;;14.68;13.18;;;21.90;99.90;;;;;;5045521;28;20052;-91
2023/09/18 10:43:27;;;;;;;15.63;11.65;;;;;;;;;;5054959;28;20118;-95
2023/09/18 10:45:53;;;;;;;12.02;10.80;;;;;;;;;;5035024;28;20028;-96
2023/09/18 10:48:22;;;;;;;9.63;8.60;;;22.20;99.90;;;;;;5047297;28;20044;-90
2023/09/18 10:50:49;;;;;;;12.60;10.20;;;;;;;;;;5036751;28;20113;-90
2023/09/18 10:53:15;;;;;;;12.05;9.52;;;22.60;99.90;;;;;;5033850;28;21037;-95
2023/09/18 10:55:43;;;;;;;13.00;9.00;;;22.50;99.90;;;;;;5091714;28;20032;-90
2023/09/18 10:58:08;;;;;;;11.18;8.43;;;22.60;99.90;;;;;;5057401;28;20032;-91
2023/09/18 11:00:36;;;;;;;12.95;7.95;;;22.90;99.90;;;;;;5051818;28;20036;-87
2023/09/18 11:03:23;;;;;;;9.52;7.32;;;22.70;99.90;;;;;;5037455;28;20038;-87
2023/09/18 11:06:01;;;;;;;8.07;6.30;;;22.70;99.90;;;;;;5039770;28;20077;-91
2023/09/18 11:08:54;;;;;;;9.27;6.35;;;22.70;99.90;;;;;;5063244;28;20046;-90
2023/09/18 11:11:20;;;;;;;7.22;5.88;;;22.60;99.90;;;;;;5061867;28;20047;-86
2023/09/18 11:13:56;;;;;;;7.97;6.35;;;23.00;99.90;;;;;;5011041;28;20822;-88
2023/09/18 11:16:28;;;;;;;6.28;5.65;;;22.90;99.90;;;;;;5082092;27;20031;-89
2023/09/18 11:19:00;;;;;;;6.97;5.25;;;23.10;99.90;;;;;;5059314;28;20044;-87
2023/09/18 11:21:26;;;;;;;5.20;4.45;;;;;;;;;;5040863;28;20050;-91
2023/09/18 11:24:04;;;;;;;8.05;4.43;;;23.20;99.90;;;;;;5060642;28;20225;-90
2023/09/18 11:26:34;;;;;;;6.43;4.63;;;22.60;99.90;;;;;;5067928;28;20121;-94
2023/09/18 11:29:05;;;;;;;7.45;4.15;;;22.90;99.90;;;;;;5064073;28;20470;-90
2023/09/18 11:31:51;;;;;;;4.78;3.75;;;22.80;99.90;;;;;;5027195;28;20090;-91
2023/09/18 11:34:22;;;;;;;6.28;4.55;;;23.00;99.90;;;;;;5053083;28;20036;-92
2023/09/18 11:36:51;;;;;;;5.90;4.43;;;;;;;;;;5055496;28;20040;-94
2023/09/18 11:39:34;;;;;;;6.68;3.53;;;22.90;99.90;;;;;;5042755;28;20105;-89
2023/09/18 11:42:13;;;;;;;6.28;3.72;;;23.10;99.90;;;;;;5073444;28;20040;-93
2023/09/18 11:44:45;;;;;;;5.80;3.67;;;23.10;99.90;;;;;;5044379;28;20052;-89
2023/09/18 11:47:20;;;;;;;6.90;4.00;;;23.30;99.90;;;;;;5072752;28;20135;-88
2023/09/18 11:50:11;;;;;;;4.32;3.33;;;23.20;99.90;;;;;;5045309;28;20048;-92
2023/09/18 11:52:37;;;;;;;4.50;3.63;;;23.40;99.90;;;;;;5055670;28;20099;-85
2023/09/18 11:55:04;;;;;;;4.63;2.70;;;22.70;99.90;;;;;;5018531;28;20040;-87
2023/09/18 11:57:36;;;;;;;8.00;3.72;;;23.00;99.90;;;;;;5055812;28;20039;-89
2023/09/18 12:00:11;;;;;;;6.82;3.22;;;23.30;99.90;;;;;;5047931;28;20954;-87
2023/09/18 12:02:41;;;;;;;5.18;2.83;;;22.70;99.90;;;;;;5029835;28;20513;-89
2023/09/18 12:05:17;;;;;;;3.63;2.80;;;23.00;99.90;;;;;;5058775;28;20126;-93
2023/09/18 12:07:46;;;;;;;4.60;2.80;;;22.80;99.90;;;;;;5029560;28;20128;-89
2023/09/18 12:10:18;;;;;;;8.30;3.25;;;22.90;99.90;;;;;;5025946;28;20279;-88
2023/09/18 12:12:44;;;;;;;4.50;3.00;;;;;;;;;;5008973;28;20721;-89
2023/09/18 12:15:18;;;;;;;6.78;2.75;;;22.20;99.90;;;;;;5014703;28;20071;-92
2023/09/18 12:17:45;;;;;;;5.68;2.45;;;;;;;;;;5050201;28;20036;-88
2023/09/18 12:20:18;;;;;;;6.15;2.78;;;22.40;99.90;;;;;;5032516;28;20052;-92
2023/09/18 12:22:56;;;;;;;5.30;2.47;;;22.60;99.90;;;;;;5052329;28;20051;-92
2023/09/18 12:25:23;;;;;;;4.18;2.80;;;22.30;99.90;;;;;;5035242;28;20109;-90
2023/09/18 12:28:03;;;;;;;5.63;2.55;;;21.90;99.90;;;;;;5072374;28;20040;-93
2023/09/18 12:30:32;;;;;;;5.43;2.58;;;;;;;;;;5063312;28;20044;-93
2023/09/18 12:33:03;;;;;;;6.32;3.40;;;;;;;;;;5061602;28;20048;-87
2023/09/18 12:35:30;;;;;;;8.27;3.80;;;;;;;;;;5061380;28;20043;-86
2023/09/18 12:38:08;;;;;;;9.20;4.53;;;21.40;99.90;;;;;;5049235;28;20072;-93
2023/09/18 12:40:37;;;;;;;6.30;4.45;;;;;;;;;;5061224;28;20058;-89
2023/09/18 12:43:06;;;;;;;7.15;4.28;;;;;;;;;;5059980;28;20056;-92
2023/09/18 12:45:36;;;;;;;5.47;4.55;;;21.20;99.90;;;;;;5064061;28;20105;-91
2023/09/18 12:48:17;;;;;;;5.32;4.25;;;21.40;99.90;;;;;;5078836;28;20039;-96
2023/09/18 12:50:46;;;;;;;7.67;4.50;;;;;;;;;;5075374;28;20040;-90
2023/09/18 12:53:14;;;;;;;7.68;4.53;;;21.40;99.90;;;;;;5061561;28;20275;-93
2023/09/18 12:55:42;;;;;;;8.27;5.32;;;21.50;99.90;;;;;;5070809;28;20223;-89
2023/09/18 12:58:24;;;;;;;7.65;5.25;;;21.50;99.90;;;;;;5062810;28;20109;-88
2023/09/18 13:00:51;;;;;;;5.60;5.00;;;;;;;;;;5043816;28;20861;-91
2023/09/18 13:03:18;;;;;;;8.15;5.20;;;;;;;;;;5066646;28;20043;-88
2023/09/18 13:05:54;;;;;;;8.10;4.82;;;21.60;99.90;;;;;;5054899;28;20476;-90
2023/09/18 13:08:23;;;;;;;7.65;4.78;;;21.70;99.90;;;;;;5064710;28;20047;-92
2023/09/18 13:10:50;;;;;;;7.07;4.68;;;;;;;;;;5068704;28;20066;-88
2023/09/18 13:13:21;;;;;;;5.85;3.55;;;22.10;99.90;;;;;;5035113;28;20052;-87
2023/09/18 13:15:50;;;;;;;5.68;3.72;;;22.30;99.90;;;;;;5072437;28;20517;-89